sensor_id;sensor_type;location;lat;lon;timestamp;P1;durP1;ratioP1;P2;durP2;ratioP2
1831;SDS011;1680;48.106;11.708;2024-02-26T00:02:08;3.17;;;2.95;;
1831;SDS011;1680;48.106;11.708;2024-02-26T00:04:35;3.53;;;3.22;;
1831;SDS011;1680;48.106;11.708;2024-02-26T00:07:03;4.03;;;3.53;;
1831;SDS011;1680;48.106;11.708;2024-02-26T00:09:33;3.28;;;2.97;;
1831;SDS011;1680;48.106;11.708;2024-02-26T00:12:02;3.30;;;3.00;;
1831;SDS011;1680;48.106;11.708;2024-02-26T00:14:30;3.60;;;3.30;;
1831;SDS011;1680;48.106;11.708;2024-02-26T00:16:57;4.45;;;3.80;;
1831;SDS011;1680;48.106;11.708;2024-02-26T00:19:24;4.93;;;4.43;;
1831;SDS011;1680;48.106;11.708;2024-02-26T00:21:51;4.93;;;4.50;;
1831;SDS011;1680;48.106;11.708;2024-02-26T00:24:20;7.03;;;6.30;;
1831;SDS011;1680;48.106;11.708;2024-02-26T00:26:47;8.00;;;6.10;;
1831;SDS011;1680;48.106;11.708;2024-02-26T00:29:18;6.13;;;5.05;;
1831;SDS011;1680;48.106;11.708;2024-02-26T00:31:46;6.97;;;5.10;;
1831;SDS011;1680;48.106;11.708;2024-02-26T00:34:13;6.65;;;5.25;;
1831;SDS011;1680;48.106;11.708;2024-02-26T00:36:40;5.32;;;4.28;;
1831;SDS011;1680;48.106;11.708;2024-02-26T00:39:07;4.50;;;4.07;;
1831;SDS011;1680;48.106;11.708;2024-02-26T00:41:39;4.47;;;4.07;;
1831;SDS011;1680;48.106;11.708;2024-02-26T00:44:06;6.32;;;4.07;;
1831;SDS011;1680;48.106;11.708;2024-02-26T00:46:33;4.13;;;3.80;;
1831;SDS011;1680;48.106;11.708;2024-02-26T00:49:00;3.33;;;3.03;;
1831;SDS011;1680;48.106;11.708;2024-02-26T00:51:28;3.63;;;3.33;;
1831;SDS011;1680;48.106;11.708;2024-02-26T00:53:55;3.80;;;3.50;;
1831;SDS011;1680;48.106;11.708;2024-02-26T00:56:22;4.05;;;3.60;;
1831;SDS011;1680;48.106;11.708;2024-02-26T00:58:50;6.32;;;5.30;;
1831;SDS011;1680;48.106;11.708;2024-02-26T01:01:17;7.68;;;6.05;;
1831;SDS011;1680;48.106;11.708;2024-02-26T01:03:45;7.60;;;5.25;;
1831;SDS011;1680;48.106;11.708;2024-02-26T01:06:11;5.05;;;4.43;;
1831;SDS011;1680;48.106;11.708;2024-02-26T01:08:38;6.78;;;5.43;;
1831;SDS011;1680;48.106;11.708;2024-02-26T01:11:05;12.95;;;9.18;;
1831;SDS011;1680;48.106;11.708;2024-02-26T01:13:33;24.10;;;14.30;;
1831;SDS011;1680;48.106;11.708;2024-02-26T01:16:01;14.75;;;10.60;;
1831;SDS011;1680;48.106;11.708;2024-02-26T01:18:28;9.45;;;6.07;;
1831;SDS011;1680;48.106;11.708;2024-02-26T01:20:55;5.65;;;4.60;;
1831;SDS011;1680;48.106;11.708;2024-02-26T01:23:22;4.57;;;3.92;;
1831;SDS011;1680;48.106;11.708;2024-02-26T01:25:49;2.92;;;2.72;;
1831;SDS011;1680;48.106;11.708;2024-02-26T01:28:16;3.10;;;2.80;;
1831;SDS011;1680;48.106;11.708;2024-02-26T01:30:43;3.55;;;3.15;;
1831;SDS011;1680;48.106;11.708;2024-02-26T01:33:11;4.07;;;3.25;;
1831;SDS011;1680;48.106;11.708;2024-02-26T01:35:38;2.95;;;2.72;;
1831;SDS011;1680;48.106;11.708;2024-02-26T01:38:06;2.92;;;2.72;;
1831;SDS011;1680;48.106;11.708;2024-02-26T01:40:33;3.25;;;2.95;;
1831;SDS011;1680;48.106;11.708;2024-02-26T01:43:01;3.30;;;3.00;;
1831;SDS011;1680;48.106;11.708;2024-02-26T01:45:29;3.17;;;2.88;;
1831;SDS011;1680;48.106;11.708;2024-02-26T01:47:55;4.00;;;3.30;;
1831;SDS011;1680;48.106;11.708;2024-02-26T01:50:24;2.80;;;2.60;;
1831;SDS011;1680;48.106;11.708;2024-02-26T01:52:51;3.45;;;3.15;;
1831;SDS011;1680;48.106;11.708;2024-02-26T01:55:19;3.03;;;2.83;;
1831;SDS011;1680;48.106;11.708;2024-02-26T01:57:48;3.55;;;3.25;;
1831;SDS011;1680;48.106;11.708;2024-02-26T02:00:16;3.00;;;2.80;;
1831;SDS011;1680;48.106;11.708;2024-02-26T02:02:44;3.42;;;3.13;;
1831;SDS011;1680;48.106;11.708;2024-02-26T02:05:12;2.90;;;2.70;;
1831;SDS011;1680;48.106;11.708;2024-02-26T02:07:41;3.10;;;2.85;;
1831;SDS011;1680;48.106;11.708;2024-02-26T02:10:08;3.35;;;3.05;;
1831;SDS011;1680;48.106;11.708;2024-02-26T02:12:36;3.00;;;2.78;;
1831;SDS011;1680;48.106;11.708;2024-02-26T02:15:05;2.80;;;2.60;;
1831;SDS011;1680;48.106;11.708;2024-02-26T02:17:32;3.03;;;2.75;;
1831;SDS011;1680;48.106;11.708;2024-02-26T02:19:59;2.78;;;2.58;;
1831;SDS011;1680;48.106;11.708;2024-02-26T02:22:28;2.45;;;2.25;;
1831;SDS011;1680;48.106;11.708;2024-02-26T02:24:57;3.05;;;2.80;;
1831;SDS011;1680;48.106;11.708;2024-02-26T02:27:24;2.63;;;2.42;;
1831;SDS011;1680;48.106;11.708;2024-02-26T02:29:51;2.70;;;2.50;;
1831;SDS011;1680;48.106;11.708;2024-02-26T02:32:19;2.83;;;2.63;;
1831;SDS011;1680;48.106;11.708;2024-02-26T02:34:47;3.63;;;2.60;;
1831;SDS011;1680;48.106;11.708;2024-02-26T02:37:13;3.05;;;2.85;;
1831;SDS011;1680;48.106;11.708;2024-02-26T02:39:42;3.47;;;2.85;;
1831;SDS011;1680;48.106;11.708;2024-02-26T02:42:09;3.15;;;2.40;;
1831;SDS011;1680;48.106;11.708;2024-02-26T02:44:36;3.20;;;2.70;;
1831;SDS011;1680;48.106;11.708;2024-02-26T02:47:03;2.70;;;2.50;;
1831;SDS011;1680;48.106;11.708;2024-02-26T02:49:30;3.28;;;2.80;;
1831;SDS011;1680;48.106;11.708;2024-02-26T02:51:57;3.10;;;2.80;;
1831;SDS011;1680;48.106;11.708;2024-02-26T02:54:24;2.95;;;2.75;;
1831;SDS011;1680;48.106;11.708;2024-02-26T02:56:52;2.72;;;2.53;;
1831;SDS011;1680;48.106;11.708;2024-02-26T02:59:19;3.50;;;2.50;;
1831;SDS011;1680;48.106;11.708;2024-02-26T03:01:46;2.90;;;2.70;;
1831;SDS011;1680;48.106;11.708;2024-02-26T03:04:13;3.05;;;2.10;;
1831;SDS011;1680;48.106;11.708;2024-02-26T03:06:40;2.60;;;2.40;;
1831;SDS011;1680;48.106;11.708;2024-02-26T03:09:07;2.67;;;2.47;;
1831;SDS011;1680;48.106;11.708;2024-02-26T03:11:34;4.60;;;2.40;;
1831;SDS011;1680;48.106;11.708;2024-02-26T03:14:03;2.78;;;2.35;;
1831;SDS011;1680;48.106;11.708;2024-02-26T03:16:31;2.75;;;2.55;;
1831;SDS011;1680;48.106;11.708;2024-02-26T03:18:58;2.45;;;2.20;;
1831;SDS011;1680;48.106;11.708;2024-02-26T03:21:28;2.88;;;2.38;;
1831;SDS011;1680;48.106;11.708;2024-02-26T03:23:55;2.00;;;1.90;;
1831;SDS011;1680;48.106;11.708;2024-02-26T03:26:22;2.80;;;2.45;;
1831;SDS011;1680;48.106;11.708;2024-02-26T03:28:49;2.53;;;2.33;;
1831;SDS011;1680;48.106;11.708;2024-02-26T03:31:17;2.65;;;2.45;;
1831;SDS011;1680;48.106;11.708;2024-02-26T03:33:44;3.20;;;2.50;;
1831;SDS011;1680;48.106;11.708;2024-02-26T03:36:11;2.45;;;2.25;;
1831;SDS011;1680;48.106;11.708;2024-02-26T03:38:38;2.53;;;2.33;;
1831;SDS011;1680;48.106;11.708;2024-02-26T03:41:05;3.10;;;2.42;;
1831;SDS011;1680;48.106;11.708;2024-02-26T03:43:33;2.70;;;2.50;;
1831;SDS011;1680;48.106;11.708;2024-02-26T03:46:00;2.45;;;2.10;;
1831;SDS011;1680;48.106;11.708;2024-02-26T03:48:30;2.50;;;2.30;;
1831;SDS011;1680;48.106;11.708;2024-02-26T03:50:57;3.65;;;2.63;;
1831;SDS011;1680;48.106;11.708;2024-02-26T03:53:24;2.40;;;2.20;;
1831;SDS011;1680;48.106;11.708;2024-02-26T03:55:51;2.30;;;2.10;;
1831;SDS011;1680;48.106;11.708;2024-02-26T03:58:17;2.10;;;2.00;;
1831;SDS011;1680;48.106;11.708;2024-02-26T04:00:44;2.00;;;1.90;;
1831;SDS011;1680;48.106;11.708;2024-02-26T04:03:12;2.00;;;1.90;;
1831;SDS011;1680;48.106;11.708;2024-02-26T04:05:40;2.28;;;2.08;;
1831;SDS011;1680;48.106;11.708;2024-02-26T04:08:07;2.10;;;1.90;;
1831;SDS011;1680;48.106;11.708;2024-02-26T04:10:35;1.90;;;1.70;;
1831;SDS011;1680;48.106;11.708;2024-02-26T04:13:03;2.30;;;2.10;;
1831;SDS011;1680;48.106;11.708;2024-02-26T04:15:30;2.10;;;2.00;;
1831;SDS011;1680;48.106;11.708;2024-02-26T04:17:57;1.90;;;1.80;;
1831;SDS011;1680;48.106;11.708;2024-02-26T04:20:24;2.40;;;2.20;;
1831;SDS011;1680;48.106;11.708;2024-02-26T04:22:52;2.35;;;2.15;;
1831;SDS011;1680;48.106;11.708;2024-02-26T04:25:19;2.85;;;2.33;;
1831;SDS011;1680;48.106;11.708;2024-02-26T04:27:46;2.40;;;2.20;;
1831;SDS011;1680;48.106;11.708;2024-02-26T04:30:13;1.90;;;1.80;;
1831;SDS011;1680;48.106;11.708;2024-02-26T04:32:42;2.00;;;1.90;;
1831;SDS011;1680;48.106;11.708;2024-02-26T04:35:09;2.15;;;1.95;;
1831;SDS011;1680;48.106;11.708;2024-02-26T04:37:36;2.40;;;2.20;;
1831;SDS011;1680;48.106;11.708;2024-02-26T04:40:05;2.50;;;2.30;;
1831;SDS011;1680;48.106;11.708;2024-02-26T04:42:33;2.40;;;2.20;;
1831;SDS011;1680;48.106;11.708;2024-02-26T04:45:00;2.22;;;2.03;;
1831;SDS011;1680;48.106;11.708;2024-02-26T04:47:27;2.33;;;2.00;;
1831;SDS011;1680;48.106;11.708;2024-02-26T04:49:55;2.13;;;1.92;;
1831;SDS011;1680;48.106;11.708;2024-02-26T04:52:24;2.05;;;1.80;;
1831;SDS011;1680;48.106;11.708;2024-02-26T04:54:51;2.40;;;2.20;;
1831;SDS011;1680;48.106;11.708;2024-02-26T04:57:19;1.90;;;1.80;;
1831;SDS011;1680;48.106;11.708;2024-02-26T04:59:46;2.00;;;1.90;;
1831;SDS011;1680;48.106;11.708;2024-02-26T05:02:13;1.90;;;1.80;;
1831;SDS011;1680;48.106;11.708;2024-02-26T05:04:40;2.25;;;2.03;;
1831;SDS011;1680;48.106;11.708;2024-02-26T05:07:07;2.10;;;1.90;;
1831;SDS011;1680;48.106;11.708;2024-02-26T05:09:34;2.55;;;2.00;;
1831;SDS011;1680;48.106;11.708;2024-02-26T05:12:01;2.45;;;2.05;;
1831;SDS011;1680;48.106;11.708;2024-02-26T05:14:30;2.35;;;2.25;;
1831;SDS011;1680;48.106;11.708;2024-02-26T05:16:57;2.10;;;2.00;;
1831;SDS011;1680;48.106;11.708;2024-02-26T05:19:23;1.80;;;1.70;;
1831;SDS011;1680;48.106;11.708;2024-02-26T05:21:51;2.00;;;1.90;;
1831;SDS011;1680;48.106;11.708;2024-02-26T05:24:18;2.33;;;2.00;;
1831;SDS011;1680;48.106;11.708;2024-02-26T05:26:47;2.30;;;2.10;;
1831;SDS011;1680;48.106;11.708;2024-02-26T05:29:15;2.20;;;2.00;;
1831;SDS011;1680;48.106;11.708;2024-02-26T05:31:46;5.43;;;2.28;;
1831;SDS011;1680;48.106;11.708;2024-02-26T05:34:13;2.45;;;2.25;;
1831;SDS011;1680;48.106;11.708;2024-02-26T05:36:40;2.53;;;2.33;;
1831;SDS011;1680;48.106;11.708;2024-02-26T05:39:06;2.50;;;2.30;;
1831;SDS011;1680;48.106;11.708;2024-02-26T05:41:36;2.20;;;2.10;;
1831;SDS011;1680;48.106;11.708;2024-02-26T05:44:03;2.10;;;1.83;;
1831;SDS011;1680;48.106;11.708;2024-02-26T05:46:30;2.15;;;2.00;;
1831;SDS011;1680;48.106;11.708;2024-02-26T05:48:59;3.10;;;1.73;;
1831;SDS011;1680;48.106;11.708;2024-02-26T05:51:26;2.40;;;2.20;;
1831;SDS011;1680;48.106;11.708;2024-02-26T05:53:53;2.17;;;1.98;;
1831;SDS011;1680;48.106;11.708;2024-02-26T05:56:20;2.20;;;2.05;;
1831;SDS011;1680;48.106;11.708;2024-02-26T05:58:47;2.13;;;1.92;;
1831;SDS011;1680;48.106;11.708;2024-02-26T06:01:15;1.88;;;1.75;;
1831;SDS011;1680;48.106;11.708;2024-02-26T06:03:44;2.13;;;1.98;;
1831;SDS011;1680;48.106;11.708;2024-02-26T06:06:12;2.20;;;2.10;;
1831;SDS011;1680;48.106;11.708;2024-02-26T06:08:40;2.40;;;2.10;;
1831;SDS011;1680;48.106;11.708;2024-02-26T06:11:07;1.88;;;1.70;;
1831;SDS011;1680;48.106;11.708;2024-02-26T06:13:34;1.90;;;1.80;;
1831;SDS011;1680;48.106;11.708;2024-02-26T06:16:01;2.00;;;1.90;;
1831;SDS011;1680;48.106;11.708;2024-02-26T06:18:28;2.67;;;1.85;;
1831;SDS011;1680;48.106;11.708;2024-02-26T06:20:54;1.77;;;1.50;;
1831;SDS011;1680;48.106;11.708;2024-02-26T06:23:25;1.90;;;1.80;;
1831;SDS011;1680;48.106;11.708;2024-02-26T06:25:52;2.40;;;1.95;;
1831;SDS011;1680;48.106;11.708;2024-02-26T06:28:19;2.25;;;1.92;;
1831;SDS011;1680;48.106;11.708;2024-02-26T06:30:45;1.70;;;1.60;;
1831;SDS011;1680;48.106;11.708;2024-02-26T06:33:12;1.80;;;1.70;;
1831;SDS011;1680;48.106;11.708;2024-02-26T06:35:39;1.95;;;1.85;;
1831;SDS011;1680;48.106;11.708;2024-02-26T06:38:06;4.90;;;1.90;;
1831;SDS011;1680;48.106;11.708;2024-02-26T06:40:35;1.90;;;1.80;;
1831;SDS011;1680;48.106;11.708;2024-02-26T06:43:03;1.90;;;1.80;;
1831;SDS011;1680;48.106;11.708;2024-02-26T06:45:30;2.03;;;1.92;;
1831;SDS011;1680;48.106;11.708;2024-02-26T06:47:58;2.50;;;2.30;;
1831;SDS011;1680;48.106;11.708;2024-02-26T06:50:24;2.40;;;2.10;;
1831;SDS011;1680;48.106;11.708;2024-02-26T06:52:51;2.33;;;2.13;;
1831;SDS011;1680;48.106;11.708;2024-02-26T06:55:18;2.00;;;1.90;;
1831;SDS011;1680;48.106;11.708;2024-02-26T06:57:47;1.98;;;1.85;;
1831;SDS011;1680;48.106;11.708;2024-02-26T07:00:14;2.25;;;2.05;;
1831;SDS011;1680;48.106;11.708;2024-02-26T07:02:41;2.33;;;2.08;;
1831;SDS011;1680;48.106;11.708;2024-02-26T07:05:08;2.28;;;2.10;;
1831;SDS011;1680;48.106;11.708;2024-02-26T07:07:35;2.75;;;1.80;;
1831;SDS011;1680;48.106;11.708;2024-02-26T07:10:02;2.67;;;2.00;;
1831;SDS011;1680;48.106;11.708;2024-02-26T07:12:30;2.67;;;2.17;;
1831;SDS011;1680;48.106;11.708;2024-02-26T07:15:00;2.45;;;2.00;;
1831;SDS011;1680;48.106;11.708;2024-02-26T07:17:27;2.22;;;2.03;;
1831;SDS011;1680;48.106;11.708;2024-02-26T07:19:54;3.05;;;2.05;;
1831;SDS011;1680;48.106;11.708;2024-02-26T07:22:21;2.20;;;1.80;;
1831;SDS011;1680;48.106;11.708;2024-02-26T07:24:49;2.53;;;1.87;;
1831;SDS011;1680;48.106;11.708;2024-02-26T07:27:17;2.27;;;1.87;;
1831;SDS011;1680;48.106;11.708;2024-02-26T07:29:46;2.40;;;1.77;;
1831;SDS011;1680;48.106;11.708;2024-02-26T07:32:14;2.10;;;1.90;;
1831;SDS011;1680;48.106;11.708;2024-02-26T07:34:41;1.70;;;1.60;;
1831;SDS011;1680;48.106;11.708;2024-02-26T07:37:09;1.90;;;1.80;;
1831;SDS011;1680;48.106;11.708;2024-02-26T07:39:37;3.17;;;1.73;;
1831;SDS011;1680;48.106;11.708;2024-02-26T07:42:04;1.87;;;1.73;;
1831;SDS011;1680;48.106;11.708;2024-02-26T07:44:32;2.00;;;1.77;;
1831;SDS011;1680;48.106;11.708;2024-02-26T07:46:59;1.60;;;1.50;;
1831;SDS011;1680;48.106;11.708;2024-02-26T07:49:28;1.50;;;1.40;;
1831;SDS011;1680;48.106;11.708;2024-02-26T07:51:55;1.57;;;1.47;;
1831;SDS011;1680;48.106;11.708;2024-02-26T07:54:23;2.73;;;1.77;;
1831;SDS011;1680;48.106;11.708;2024-02-26T07:56:50;1.70;;;1.60;;
1831;SDS011;1680;48.106;11.708;2024-02-26T07:59:16;1.80;;;1.70;;
1831;SDS011;1680;48.106;11.708;2024-02-26T08:01:43;3.73;;;2.07;;
1831;SDS011;1680;48.106;11.708;2024-02-26T08:04:11;2.13;;;2.00;;
1831;SDS011;1680;48.106;11.708;2024-02-26T08:06:39;2.20;;;2.00;;
1831;SDS011;1680;48.106;11.708;2024-02-26T08:09:06;2.30;;;2.10;;
1831;SDS011;1680;48.106;11.708;2024-02-26T08:11:33;2.93;;;2.30;;
1831;SDS011;1680;48.106;11.708;2024-02-26T08:14:00;2.27;;;2.07;;
1831;SDS011;1680;48.106;11.708;2024-02-26T08:16:27;2.63;;;2.20;;
1831;SDS011;1680;48.106;11.708;2024-02-26T08:18:54;2.47;;;2.07;;
1831;SDS011;1680;48.106;11.708;2024-02-26T08:21:20;2.00;;;1.90;;
1831;SDS011;1680;48.106;11.708;2024-02-26T08:23:51;2.33;;;2.10;;
1831;SDS011;1680;48.106;11.708;2024-02-26T08:26:18;2.03;;;1.83;;
1831;SDS011;1680;48.106;11.708;2024-02-26T08:28:45;2.30;;;2.10;;
1831;SDS011;1680;48.106;11.708;2024-02-26T08:31:14;2.20;;;1.70;;
1831;SDS011;1680;48.106;11.708;2024-02-26T08:33:44;2.40;;;2.00;;
1831;SDS011;1680;48.106;11.708;2024-02-26T08:36:11;2.10;;;1.93;;
1831;SDS011;1680;48.106;11.708;2024-02-26T08:38:38;2.20;;;2.10;;
1831;SDS011;1680;48.106;11.708;2024-02-26T08:41:06;3.60;;;1.80;;
1831;SDS011;1680;48.106;11.708;2024-02-26T08:43:33;1.80;;;1.70;;
1831;SDS011;1680;48.106;11.708;2024-02-26T08:46:02;2.23;;;2.00;;
1831;SDS011;1680;48.106;11.708;2024-02-26T08:48:29;1.43;;;1.33;;
1831;SDS011;1680;48.106;11.708;2024-02-26T08:50:56;2.67;;;1.83;;
1831;SDS011;1680;48.106;11.708;2024-02-26T08:53:23;1.77;;;1.67;;
1831;SDS011;1680;48.106;11.708;2024-02-26T08:55:52;1.90;;;1.80;;
1831;SDS011;1680;48.106;11.708;2024-02-26T08:58:20;2.40;;;1.70;;
1831;SDS011;1680;48.106;11.708;2024-02-26T09:00:47;1.60;;;1.50;;
1831;SDS011;1680;48.106;11.708;2024-02-26T09:03:14;1.70;;;1.60;;
1831;SDS011;1680;48.106;11.708;2024-02-26T09:05:40;1.60;;;1.50;;
1831;SDS011;1680;48.106;11.708;2024-02-26T09:08:10;2.27;;;2.00;;
1831;SDS011;1680;48.106;11.708;2024-02-26T09:10:37;1.67;;;1.57;;
1831;SDS011;1680;48.106;11.708;2024-02-26T09:13:05;2.10;;;1.80;;
1831;SDS011;1680;48.106;11.708;2024-02-26T09:15:33;2.10;;;1.50;;
1831;SDS011;1680;48.106;11.708;2024-02-26T09:18:00;1.80;;;1.70;;
1831;SDS011;1680;48.106;11.708;2024-02-26T09:20:28;1.63;;;1.53;;
1831;SDS011;1680;48.106;11.708;2024-02-26T09:22:55;1.70;;;1.60;;
1831;SDS011;1680;48.106;11.708;2024-02-26T09:25:22;1.90;;;1.80;;
1831;SDS011;1680;48.106;11.708;2024-02-26T09:27:49;3.23;;;1.70;;
1831;SDS011;1680;48.106;11.708;2024-02-26T09:30:16;2.70;;;1.77;;
1831;SDS011;1680;48.106;11.708;2024-02-26T09:32:47;2.17;;;1.90;;
1831;SDS011;1680;48.106;11.708;2024-02-26T09:35:14;3.50;;;2.50;;
1831;SDS011;1680;48.106;11.708;2024-02-26T09:37:41;4.97;;;1.90;;
1831;SDS011;1680;48.106;11.708;2024-02-26T09:40:09;2.17;;;1.97;;
1831;SDS011;1680;48.106;11.708;2024-02-26T09:42:37;2.47;;;2.27;;
1831;SDS011;1680;48.106;11.708;2024-02-26T09:45:09;3.23;;;1.83;;
1831;SDS011;1680;48.106;11.708;2024-02-26T09:47:37;2.80;;;1.80;;
1831;SDS011;1680;48.106;11.708;2024-02-26T09:50:07;2.63;;;1.90;;
1831;SDS011;1680;48.106;11.708;2024-02-26T09:52:37;2.60;;;1.97;;
1831;SDS011;1680;48.106;11.708;2024-02-26T09:55:06;4.73;;;1.60;;
1831;SDS011;1680;48.106;11.708;2024-02-26T09:57:34;2.00;;;1.90;;
1831;SDS011;1680;48.106;11.708;2024-02-26T10:00:01;2.63;;;1.87;;
1831;SDS011;1680;48.106;11.708;2024-02-26T10:02:30;2.70;;;1.77;;
1831;SDS011;1680;48.106;11.708;2024-02-26T10:04:57;1.80;;;1.60;;
1831;SDS011;1680;48.106;11.708;2024-02-26T10:07:28;1.63;;;1.30;;
1831;SDS011;1680;48.106;11.708;2024-02-26T10:09:56;2.20;;;1.70;;
1831;SDS011;1680;48.106;11.708;2024-02-26T10:12:23;3.37;;;1.70;;
1831;SDS011;1680;48.106;11.708;2024-02-26T10:14:52;2.50;;;1.80;;
1831;SDS011;1680;48.106;11.708;2024-02-26T10:17:19;3.97;;;2.10;;
1831;SDS011;1680;48.106;11.708;2024-02-26T10:19:46;3.03;;;1.87;;
1831;SDS011;1680;48.106;11.708;2024-02-26T10:22:13;3.40;;;2.00;;
1831;SDS011;1680;48.106;11.708;2024-02-26T10:24:42;2.63;;;1.90;;
1831;SDS011;1680;48.106;11.708;2024-02-26T10:27:09;18.77;;;3.90;;
1831;SDS011;1680;48.106;11.708;2024-02-26T10:29:36;7.80;;;1.77;;
1831;SDS011;1680;48.106;11.708;2024-02-26T10:32:04;2.03;;;1.73;;
1831;SDS011;1680;48.106;11.708;2024-02-26T10:34:31;1.57;;;1.47;;
1831;SDS011;1680;48.106;11.708;2024-02-26T10:36:58;4.43;;;1.63;;
1831;SDS011;1680;48.106;11.708;2024-02-26T10:39:27;3.53;;;1.77;;
1831;SDS011;1680;48.106;11.708;2024-02-26T10:41:56;1.77;;;1.50;;
1831;SDS011;1680;48.106;11.708;2024-02-26T10:44:23;1.97;;;1.63;;
1831;SDS011;1680;48.106;11.708;2024-02-26T10:46:52;1.73;;;1.60;;
1831;SDS011;1680;48.106;11.708;2024-02-26T10:49:19;1.60;;;1.50;;
1831;SDS011;1680;48.106;11.708;2024-02-26T10:51:51;1.47;;;1.37;;
1831;SDS011;1680;48.106;11.708;2024-02-26T10:54:18;2.20;;;1.70;;
1831;SDS011;1680;48.106;11.708;2024-02-26T10:56:47;1.47;;;1.37;;
1831;SDS011;1680;48.106;11.708;2024-02-26T10:59:17;2.57;;;1.90;;
1831;SDS011;1680;48.106;11.708;2024-02-26T11:01:46;1.50;;;1.40;;
1831;SDS011;1680;48.106;11.708;2024-02-26T11:04:14;2.80;;;1.80;;
1831;SDS011;1680;48.106;11.708;2024-02-26T11:06:42;2.30;;;1.50;;
1831;SDS011;1680;48.106;11.708;2024-02-26T11:09:10;1.50;;;1.40;;
1831;SDS011;1680;48.106;11.708;2024-02-26T11:11:39;1.70;;;1.60;;
1831;SDS011;1680;48.106;11.708;2024-02-26T11:14:06;1.67;;;1.57;;
1831;SDS011;1680;48.106;11.708;2024-02-26T11:16:35;1.70;;;1.40;;
1831;SDS011;1680;48.106;11.708;2024-02-26T11:19:04;2.47;;;2.27;;
1831;SDS011;1680;48.106;11.708;2024-02-26T11:21:33;2.07;;;1.73;;
1831;SDS011;1680;48.106;11.708;2024-02-26T11:24:07;1.47;;;1.37;;
1831;SDS011;1680;48.106;11.708;2024-02-26T11:26:34;2.07;;;1.80;;
1831;SDS011;1680;48.106;11.708;2024-02-26T11:29:03;1.97;;;1.87;;
1831;SDS011;1680;48.106;11.708;2024-02-26T11:31:31;1.70;;;1.60;;
1831;SDS011;1680;48.106;11.708;2024-02-26T11:34:00;1.80;;;1.60;;
1831;SDS011;1680;48.106;11.708;2024-02-26T11:36:27;1.80;;;1.70;;
1831;SDS011;1680;48.106;11.708;2024-02-26T11:38:55;1.80;;;1.70;;
1831;SDS011;1680;48.106;11.708;2024-02-26T11:41:21;1.70;;;1.60;;
1831;SDS011;1680;48.106;11.708;2024-02-26T11:43:49;1.70;;;1.53;;
1831;SDS011;1680;48.106;11.708;2024-02-26T11:46:24;1.73;;;1.63;;
1831;SDS011;1680;48.106;11.708;2024-02-26T11:48:53;1.70;;;1.60;;
1831;SDS011;1680;48.106;11.708;2024-02-26T11:51:26;2.27;;;1.73;;
1831;SDS011;1680;48.106;11.708;2024-02-26T11:53:53;2.67;;;2.10;;
1831;SDS011;1680;48.106;11.708;2024-02-26T11:56:22;1.50;;;1.40;;
1831;SDS011;1680;48.106;11.708;2024-02-26T12:01:41;2.00;;;1.40;;
1831;SDS011;1680;48.106;11.708;2024-02-26T12:04:11;1.70;;;1.40;;
1831;SDS011;1680;48.106;11.708;2024-02-26T12:06:44;1.50;;;1.40;;
1831;SDS011;1680;48.106;11.708;2024-02-26T12:09:11;1.67;;;1.20;;
1831;SDS011;1680;48.106;11.708;2024-02-26T12:11:39;1.57;;;1.47;;
1831;SDS011;1680;48.106;11.708;2024-02-26T12:14:08;1.67;;;1.07;;
1831;SDS011;1680;48.106;11.708;2024-02-26T12:16:35;1.60;;;1.50;;
1831;SDS011;1680;48.106;11.708;2024-02-26T12:19:03;1.87;;;1.40;;
1831;SDS011;1680;48.106;11.708;2024-02-26T12:21:31;1.80;;;1.40;;
1831;SDS011;1680;48.106;11.708;2024-02-26T12:24:08;1.83;;;1.30;;
1831;SDS011;1680;48.106;11.708;2024-02-26T12:26:36;1.33;;;1.20;;
1831;SDS011;1680;48.106;11.708;2024-02-26T12:29:03;1.50;;;1.40;;
1831;SDS011;1680;48.106;11.708;2024-02-26T12:31:30;1.50;;;1.40;;
1831;SDS011;1680;48.106;11.708;2024-02-26T12:33:58;1.20;;;1.10;;
1831;SDS011;1680;48.106;11.708;2024-02-26T12:36:25;1.43;;;1.00;;
1831;SDS011;1680;48.106;11.708;2024-02-26T12:38:52;1.10;;;1.00;;
1831;SDS011;1680;48.106;11.708;2024-02-26T12:41:20;1.47;;;1.30;;
1831;SDS011;1680;48.106;11.708;2024-02-26T12:43:47;2.77;;;1.17;;
1831;SDS011;1680;48.106;11.708;2024-02-26T12:46:14;1.20;;;1.10;;
1831;SDS011;1680;48.106;11.708;2024-02-26T12:48:42;1.37;;;1.27;;
1831;SDS011;1680;48.106;11.708;2024-02-26T12:51:09;1.20;;;1.10;;
1831;SDS011;1680;48.106;11.708;2024-02-26T12:53:36;2.80;;;1.27;;
1831;SDS011;1680;48.106;11.708;2024-02-26T12:56:04;1.20;;;1.10;;
1831;SDS011;1680;48.106;11.708;2024-02-26T12:58:34;1.43;;;1.33;;
1831;SDS011;1680;48.106;11.708;2024-02-26T13:01:03;1.40;;;1.30;;
1831;SDS011;1680;48.106;11.708;2024-02-26T13:03:31;2.17;;;1.53;;
1831;SDS011;1680;48.106;11.708;2024-02-26T13:05:58;1.20;;;1.10;;
1831;SDS011;1680;48.106;11.708;2024-02-26T13:08:25;1.70;;;1.40;;
1831;SDS011;1680;48.106;11.708;2024-02-26T13:10:52;3.13;;;2.87;;
1831;SDS011;1680;48.106;11.708;2024-02-26T13:13:19;3.87;;;3.30;;
1831;SDS011;1680;48.106;11.708;2024-02-26T13:15:48;6.00;;;4.77;;
1831;SDS011;1680;48.106;11.708;2024-02-26T13:18:15;6.53;;;5.20;;
1831;SDS011;1680;48.106;11.708;2024-02-26T13:20:42;4.57;;;3.80;;
1831;SDS011;1680;48.106;11.708;2024-02-26T13:23:10;5.10;;;3.97;;
1831;SDS011;1680;48.106;11.708;2024-02-26T13:25:38;4.30;;;3.90;;
1831;SDS011;1680;48.106;11.708;2024-02-26T13:28:09;5.47;;;4.90;;
1831;SDS011;1680;48.106;11.708;2024-02-26T13:30:51;4.97;;;4.47;;
1831;SDS011;1680;48.106;11.708;2024-02-26T13:33:18;4.70;;;4.30;;
1831;SDS011;1680;48.106;11.708;2024-02-26T13:35:46;4.87;;;4.47;;
1831;SDS011;1680;48.106;11.708;2024-02-26T13:38:13;4.40;;;4.00;;
1831;SDS011;1680;48.106;11.708;2024-02-26T13:40:40;5.70;;;4.40;;
1831;SDS011;1680;48.106;11.708;2024-02-26T13:43:07;5.50;;;4.83;;
1831;SDS011;1680;48.106;11.708;2024-02-26T13:45:34;4.93;;;4.50;;
1831;SDS011;1680;48.106;11.708;2024-02-26T13:48:03;5.67;;;4.60;;
1831;SDS011;1680;48.106;11.708;2024-02-26T13:50:31;7.93;;;4.40;;
1831;SDS011;1680;48.106;11.708;2024-02-26T13:52:58;7.77;;;6.13;;
1831;SDS011;1680;48.106;11.708;2024-02-26T13:55:25;4.53;;;3.67;;
1831;SDS011;1680;48.106;11.708;2024-02-26T13:57:53;4.37;;;3.67;;
1831;SDS011;1680;48.106;11.708;2024-02-26T14:00:20;3.90;;;3.60;;
1831;SDS011;1680;48.106;11.708;2024-02-26T14:02:47;3.97;;;3.53;;
1831;SDS011;1680;48.106;11.708;2024-02-26T14:05:16;4.87;;;3.60;;
1831;SDS011;1680;48.106;11.708;2024-02-26T14:07:43;3.87;;;3.47;;
1831;SDS011;1680;48.106;11.708;2024-02-26T14:10:11;3.97;;;3.47;;
1831;SDS011;1680;48.106;11.708;2024-02-26T14:12:39;4.47;;;4.07;;
1831;SDS011;1680;48.106;11.708;2024-02-26T14:15:06;6.60;;;4.57;;
1831;SDS011;1680;48.106;11.708;2024-02-26T14:17:33;4.53;;;4.03;;
1831;SDS011;1680;48.106;11.708;2024-02-26T14:20:00;4.13;;;3.73;;
1831;SDS011;1680;48.106;11.708;2024-02-26T14:22:30;3.60;;;3.30;;
1831;SDS011;1680;48.106;11.708;2024-02-26T14:24:57;6.53;;;3.77;;
1831;SDS011;1680;48.106;11.708;2024-02-26T14:27:24;4.07;;;3.67;;
1831;SDS011;1680;48.106;11.708;2024-02-26T14:29:51;4.40;;;4.00;;
1831;SDS011;1680;48.106;11.708;2024-02-26T14:32:18;4.00;;;3.30;;
1831;SDS011;1680;48.106;11.708;2024-02-26T14:34:45;6.43;;;3.50;;
1831;SDS011;1680;48.106;11.708;2024-02-26T14:37:12;4.30;;;3.90;;
1831;SDS011;1680;48.106;11.708;2024-02-26T14:39:41;5.40;;;4.07;;
1831;SDS011;1680;48.106;11.708;2024-02-26T14:42:08;4.40;;;4.00;;
1831;SDS011;1680;48.106;11.708;2024-02-26T14:44:35;3.60;;;3.30;;
1831;SDS011;1680;48.106;11.708;2024-02-26T14:47:02;3.60;;;3.30;;
1831;SDS011;1680;48.106;11.708;2024-02-26T14:49:29;3.90;;;3.20;;
1831;SDS011;1680;48.106;11.708;2024-02-26T14:51:56;3.30;;;3.03;;
1831;SDS011;1680;48.106;11.708;2024-02-26T14:54:24;4.00;;;3.40;;
1831;SDS011;1680;48.106;11.708;2024-02-26T14:56:52;3.33;;;3.10;;
1831;SDS011;1680;48.106;11.708;2024-02-26T14:59:20;4.07;;;3.20;;
1831;SDS011;1680;48.106;11.708;2024-02-26T15:01:47;4.47;;;3.23;;
1831;SDS011;1680;48.106;11.708;2024-02-26T15:04:14;3.47;;;3.17;;
1831;SDS011;1680;48.106;11.708;2024-02-26T15:06:41;5.77;;;3.13;;